Time;durP1;ratioP1;P1;durP2;ratioP2;P2;SDS_P1;SDS_P2;PMS_P1;PMS_P2;Temp;Humidity;BMP_temperature;BMP_pressure;BME280_temperature;BME280_humidity;BME280_pressure;Samples;Min_cycle;Max_cycle;Signal;HPM_P1;HPM_P2
2022/08/25 00:01:47;;;;;;;0.70;0.50;;;22.30;99.90;;;;;;5119199;28;20875;-73
2022/08/25 00:04:15;;;;;;;0.63;0.40;;;22.30;99.90;;;;;;5117573;28;20483;-73
2022/08/25 00:06:43;;;;;;;0.83;0.47;;;22.40;95.20;;;;;;5118753;28;20444;-73
2022/08/25 00:09:12;;;;;;;0.73;0.50;;;22.50;67.20;;;;;;5119003;28;20532;-73
2022/08/25 00:11:40;;;;;;;0.60;0.50;;;22.50;92.70;;;;;;5118775;28;20797;-73
2022/08/25 00:14:12;;;;;;;0.90;0.53;;;22.40;99.90;;;;;;5117080;28;20999;-72
2022/08/25 00:16:39;;;;;;;0.80;0.60;;;22.40;99.90;;;;;;5118297;28;20448;-73
2022/08/25 00:19:10;;;;;;;0.60;0.50;;;22.30;99.90;;;;;;5118740;28;20554;-72
2022/08/25 00:21:39;;;;;;;0.80;0.60;;;22.30;99.90;;;;;;5118146;28;20532;-72
2022/08/25 00:24:08;;;;;;;0.80;0.60;;;22.30;99.90;;;;;;5114418;28;20916;-72
2022/08/25 00:26:39;;;;;;;1.10;0.63;;;22.40;99.90;;;;;;5118299;28;20471;-71
2022/08/25 00:29:08;;;;;;;0.73;0.60;;;22.30;99.90;;;;;;5099219;28;20868;-72
2022/08/25 00:31:35;;;;;;;0.80;0.60;;;22.30;99.90;;;;;;5116800;28;20449;-71
2022/08/25 00:34:06;;;;;;;0.73;0.50;;;22.30;99.90;;;;;;5115187;28;20519;-72
2022/08/25 00:36:33;;;;;;;1.20;0.70;;;22.30;99.90;;;;;;5116704;28;20506;-71
2022/08/25 00:39:00;;;;;;;0.80;0.50;;;22.20;99.90;;;;;;5116108;28;20452;-72
2022/08/25 00:41:27;;;;;;;0.80;0.50;;;22.20;99.90;;;;;;5117944;28;20971;-73
2022/08/25 00:43:58;;;;;;;0.90;0.60;;;22.20;99.90;;;;;;5117521;28;20473;-72
2022/08/25 00:46:29;;;;;;;0.90;0.60;;;22.20;99.90;;;;;;5117422;28;20537;-72
2022/08/25 00:49:01;;;;;;;0.80;0.70;;;22.20;99.90;;;;;;5117391;28;20492;-72
2022/08/25 00:51:36;;;;;;;0.80;0.60;;;22.20;99.90;;;;;;5118049;28;20505;-71
2022/08/25 00:54:04;;;;;;;1.87;0.60;;;22.20;99.90;;;;;;5117571;28;20528;-72
2022/08/25 00:56:33;;;;;;;0.90;0.60;;;22.20;99.90;;;;;;5117625;28;20477;-71
2022/08/25 00:59:00;;;;;;;0.63;0.50;;;22.20;99.90;;;;;;5117485;28;20492;-71
2022/08/25 01:01:29;;;;;;;0.80;0.50;;;22.20;99.90;;;;;;5117480;28;20440;-72
2022/08/25 01:03:56;;;;;;;0.70;0.60;;;22.20;99.90;;;;;;5115927;28;20448;-70
2022/08/25 01:06:24;;;;;;;0.80;0.60;;;22.10;99.90;;;;;;5117653;28;20502;-71
2022/08/25 01:08:53;;;;;;;0.80;0.60;;;22.10;99.90;;;;;;5117343;28;20556;-71
2022/08/25 01:11:20;;;;;;;0.70;0.50;;;22.00;99.90;;;;;;5117142;28;20881;-71
2022/08/25 01:13:51;;;;;;;0.80;0.70;;;22.00;99.90;;;;;;5115753;28;20484;-71
2022/08/25 01:16:18;;;;;;;1.00;0.67;;;22.00;99.90;;;;;;5117205;28;20752;-73
2022/08/25 01:18:48;;;;;;;0.90;0.67;;;21.90;99.90;;;;;;5116296;28;20459;-73
2022/08/25 01:21:18;;;;;;;0.80;0.60;;;21.90;99.90;;;;;;5116563;28;20527;-73
2022/08/25 01:23:46;;;;;;;0.77;0.60;;;21.90;1.00;;;;;;5117005;28;20549;-72
2022/08/25 01:26:16;;;;;;;0.70;0.60;;;21.90;1.00;;;;;;5117708;28;20747;-73
2022/08/25 01:31:26;;;;;;;0.80;0.60;;;21.80;1.00;;;;;;5116047;28;20740;-73
2022/08/25 01:33:53;;;;;;;1.73;0.60;;;21.80;1.00;;;;;;5116641;28;20764;-72
2022/08/25 01:36:23;;;;;;;0.93;0.60;;;21.80;1.00;;;;;;5116657;28;20521;-72
2022/08/25 01:38:50;;;;;;;0.70;0.53;;;21.80;1.00;;;;;;5114028;28;20453;-72
2022/08/25 01:41:21;;;;;;;0.90;0.70;;;21.70;1.00;;;;;;5116836;28;20517;-72
2022/08/25 01:43:48;;;;;;;0.70;0.50;;;21.70;1.00;;;;;;5116398;28;20928;-73
2022/08/25 01:46:15;;;;;;;0.90;0.63;;;21.60;1.00;;;;;;5115249;28;20444;-72
2022/08/25 01:48:42;;;;;;;1.70;0.80;;;21.60;1.00;;;;;;5116787;28;20496;-72
2022/08/25 01:51:09;;;;;;;0.80;0.60;;;21.50;1.00;;;;;;5116482;28;20499;-72
2022/08/25 01:53:37;;;;;;;0.90;0.70;;;21.40;1.00;;;;;;5116453;28;20520;-72
2022/08/25 01:56:10;;;;;;;0.97;0.60;;;21.40;52.10;;;;;;5116722;28;20534;-72
2022/08/25 01:58:40;;;;;;;1.53;0.60;;;21.40;2.70;;;;;;5116624;28;20463;-72
2022/08/25 02:01:10;;;;;;;0.80;0.50;;;21.30;20.30;;;;;;5116611;28;20505;-73
2022/08/25 02:03:38;;;;;;;0.70;0.60;;;21.30;99.90;;;;;;5114409;28;20449;-73
2022/08/25 02:06:06;;;;;;;1.00;0.60;;;21.30;99.90;;;;;;5116377;28;20490;-73
2022/08/25 02:08:34;;;;;;;0.67;0.50;;;21.30;96.60;;;;;;5116606;28;20528;-73
2022/08/25 02:11:02;;;;;;;0.80;0.60;;;21.40;99.90;;;;;;5116942;28;20539;-73
2022/08/25 02:13:29;;;;;;;0.90;0.60;;;21.40;61.60;;;;;;5116476;28;20584;-73
2022/08/25 02:15:59;;;;;;;0.83;0.60;;;21.40;57.00;;;;;;5116540;28;20449;-73
2022/08/25 02:18:26;;;;;;;0.70;0.60;;;21.50;1.00;;;;;;5116498;28;20527;-73
2022/08/25 02:20:53;;;;;;;0.80;0.60;;;21.60;1.00;;;;;;5116217;28;20943;-73
2022/08/25 02:23:21;;;;;;;1.00;0.70;;;21.70;1.00;;;;;;5113963;28;20475;-73
2022/08/25 02:25:48;;;;;;;0.70;0.60;;;21.70;1.00;;;;;;5116511;28;20552;-73
2022/08/25 02:28:16;;;;;;;0.70;0.60;;;21.70;1.00;;;;;;5115250;28;20818;-73
2022/08/25 02:30:43;;;;;;;0.80;0.60;;;21.70;1.00;;;;;;5116376;28;20822;-72
2022/08/25 02:33:10;;;;;;;0.90;0.60;;;21.70;1.00;;;;;;5116150;28;20484;-73
2022/08/25 02:35:38;;;;;;;0.70;0.50;;;21.60;1.00;;;;;;5116302;28;20445;-73
2022/08/25 02:38:06;;;;;;;0.87;0.50;;;21.50;1.00;;;;;;5113785;28;20463;-72
2022/08/25 02:40:33;;;;;;;0.90;0.63;;;21.50;1.00;;;;;;5116229;28;20480;-72
2022/08/25 02:43:01;;;;;;;1.03;0.80;;;21.50;1.00;;;;;;5114085;28;20796;-72
2022/08/25 02:45:29;;;;;;;1.27;0.63;;;21.50;1.00;;;;;;5116204;28;20451;-73
2022/08/25 02:47:56;;;;;;;1.17;0.70;;;21.50;1.00;;;;;;5117316;28;20498;-72
2022/08/25 02:50:23;;;;;;;1.00;0.70;;;21.40;99.90;;;;;;5120375;28;20501;-72
2022/08/25 02:52:51;;;;;;;3.17;0.60;;;21.30;99.90;;;;;;5118107;28;20449;-73
2022/08/25 02:55:19;;;;;;;0.80;0.60;;;21.20;99.90;;;;;;5119938;28;20453;-73
2022/08/25 02:57:46;;;;;;;0.90;0.63;;;21.10;1.00;;;;;;5119686;28;20885;-73
2022/08/25 03:00:15;;;;;;;0.90;0.70;;;21.10;1.00;;;;;;5119544;28;20451;-73
2022/08/25 03:02:44;;;;;;;1.20;0.70;;;21.10;1.00;;;;;;5118826;28;20513;-72
2022/08/25 03:05:12;;;;;;;0.80;0.57;;;21.10;1.00;;;;;;5118928;28;20437;-72
2022/08/25 03:07:39;;;;;;;0.90;0.70;;;21.00;1.00;;;;;;5116080;28;20547;-72
2022/08/25 03:10:09;;;;;;;0.70;0.60;;;20.90;1.00;;;;;;5117274;28;20484;-72
2022/08/25 03:12:36;;;;;;;1.10;0.70;;;20.90;99.90;;;;;;5118137;28;20452;-72
2022/08/25 03:15:03;;;;;;;0.93;0.80;;;20.80;99.90;;;;;;5117802;28;21064;-73
2022/08/25 03:17:30;;;;;;;1.30;0.70;;;20.70;1.00;;;;;;5115448;28;20509;-72
2022/08/25 03:19:59;;;;;;;0.93;0.70;;;20.50;1.00;;;;;;5118068;28;20444;-72
2022/08/25 03:22:26;;;;;;;1.43;0.70;;;20.50;1.00;;;;;;5114911;28;21159;-72
2022/08/25 03:26:52;;;;;;;0.90;0.73;;;20.50;99.90;;;;;;5118360;28;20545;-73
2022/08/25 03:27:40;;;;;;;0.90;0.70;;;20.40;99.90;;;;;;5118021;28;20445;-72
2022/08/25 03:30:08;;;;;;;1.53;0.77;;;20.40;1.00;;;;;;5117710;28;20436;-72
2022/08/25 03:32:35;;;;;;;0.97;0.73;;;20.30;1.00;;;;;;5118483;28;20451;-72
2022/08/25 03:35:04;;;;;;;1.43;0.80;;;20.30;1.00;;;;;;5119571;28;20527;-72
2022/08/25 03:37:31;;;;;;;0.80;0.70;;;20.30;1.00;;;;;;5117288;28;20794;-72
2022/08/25 03:39:58;;;;;;;0.80;0.63;;;20.40;1.00;;;;;;5119065;28;20459;-73
2022/08/25 03:42:25;;;;;;;1.73;0.70;;;20.40;99.90;;;;;;5116642;28;20802;-72
2022/08/25 03:44:53;;;;;;;1.30;0.70;;;20.50;99.90;;;;;;5118373;28;20497;-73
2022/08/25 03:47:20;;;;;;;1.37;0.77;;;20.50;32.40;;;;;;5118546;28;20750;-73
2022/08/25 03:49:47;;;;;;;0.90;0.70;;;20.60;1.00;;;;;;5118237;28;20445;-73
2022/08/25 03:52:17;;;;;;;1.00;0.70;;;20.70;99.90;;;;;;5118273;28;20798;-73
2022/08/25 03:54:44;;;;;;;1.20;0.80;;;20.60;99.90;;;;;;5117785;28;20995;-72
2022/08/25 03:57:11;;;;;;;0.90;0.70;;;20.60;43.30;;;;;;5115997;28;20533;-73
2022/08/25 03:59:38;;;;;;;1.10;0.70;;;20.50;99.90;;;;;;5117444;28;20531;-72
2022/08/25 04:02:06;;;;;;;1.10;0.80;;;20.50;99.90;;;;;;5118503;28;20915;-74
2022/08/25 04:04:33;;;;;;;1.13;0.73;;;20.40;1.00;;;;;;5118364;28;20531;-72
2022/08/25 04:07:03;;;;;;;1.20;0.70;;;20.40;1.00;;;;;;5118616;28;20484;-72
2022/08/25 04:09:32;;;;;;;0.90;0.60;;;20.40;1.00;;;;;;5118286;28;20445;-72
2022/08/25 04:11:59;;;;;;;0.90;0.70;;;20.40;1.00;;;;;;5118580;28;20444;-72
2022/08/25 04:14:26;;;;;;;0.90;0.80;;;20.40;1.00;;;;;;5117604;28;20844;-72
2022/08/25 04:16:53;;;;;;;0.90;0.70;;;20.40;99.90;;;;;;5117596;28;20798;-72
2022/08/25 04:19:20;;;;;;;1.10;0.80;;;20.50;1.00;;;;;;5118143;28;20456;-72
2022/08/25 04:21:47;;;;;;;1.07;0.80;;;20.60;99.90;;;;;;5116747;28;20799;-72
2022/08/25 04:24:15;;;;;;;0.90;0.70;;;20.60;99.90;;;;;;5115917;28;21125;-72
2022/08/25 04:26:46;;;;;;;1.67;0.70;;;20.60;99.90;;;;;;5115200;28;20575;-72
2022/08/25 04:29:15;;;;;;;1.00;0.80;;;20.60;99.90;;;;;;5116062;28;20453;-72
2022/08/25 04:31:45;;;;;;;1.23;0.77;;;20.50;99.90;;;;;;5116655;28;20525;-72
2022/08/25 04:34:12;;;;;;;0.97;0.73;;;20.50;1.00;;;;;;5113677;28;20484;-71
2022/08/25 04:36:39;;;;;;;1.07;0.80;;;20.40;1.00;;;;;;5116342;28;20798;-72
2022/08/25 04:39:07;;;;;;;0.93;0.70;;;20.30;99.90;;;;;;5114032;28;20452;-72
2022/08/25 04:41:34;;;;;;;1.00;0.70;;;20.30;99.90;;;;;;5116910;28;20469;-72
2022/08/25 04:44:03;;;;;;;2.40;0.80;;;20.30;99.90;;;;;;5117533;28;20449;-72
2022/08/25 04:46:32;;;;;;;0.97;0.87;;;20.30;99.90;;;;;;5117218;28;20449;-72
2022/08/25 04:49:00;;;;;;;0.93;0.80;;;20.30;99.90;;;;;;5116378;28;20813;-71
2022/08/25 04:51:30;;;;;;;1.60;0.80;;;20.30;1.00;;;;;;5115902;28;20539;-72
2022/08/25 04:53:59;;;;;;;2.80;0.80;;;20.30;1.00;;;;;;5114425;28;20580;-70
2022/08/25 04:56:26;;;;;;;1.50;0.77;;;20.30;1.00;;;;;;5114505;28;20437;-71
2022/08/25 04:58:55;;;;;;;1.50;0.83;;;20.40;1.00;;;;;;5113681;28;20472;-73
2022/08/25 05:01:25;;;;;;;0.97;0.80;;;20.50;99.90;;;;;;5115233;28;20509;-73
2022/08/25 05:03:55;;;;;;;1.30;0.80;;;20.50;1.00;;;;;;5115547;28;20517;-73
2022/08/25 05:06:22;;;;;;;1.20;0.80;;;20.50;1.00;;;;;;5115185;28;20455;-72
2022/08/25 05:08:50;;;;;;;1.30;0.80;;;20.50;1.00;;;;;;5116240;28;20457;-73
2022/08/25 05:11:18;;;;;;;1.43;0.80;;;20.50;1.00;;;;;;5116408;28;20527;-73
2022/08/25 05:13:46;;;;;;;3.30;1.00;;;20.50;99.90;;;;;;5110675;28;20545;-73
2022/08/25 05:16:13;;;;;;;0.90;0.70;;;20.50;99.90;;;;;;5114511;28;20845;-72
2022/08/25 05:18:42;;;;;;;1.10;0.70;;;20.50;1.00;;;;;;5112802;28;20517;-72
2022/08/25 05:21:11;;;;;;;1.70;0.77;;;20.60;99.90;;;;;;5116473;28;20502;-72
2022/08/25 05:23:39;;;;;;;1.50;0.90;;;20.60;1.00;;;;;;5114929;28;20480;-72
2022/08/25 05:26:08;;;;;;;1.27;0.80;;;20.70;99.90;;;;;;5115187;28;20448;-72
2022/08/25 05:28:35;;;;;;;1.53;0.80;;;20.60;1.00;;;;;;5112110;28;20496;-72
2022/08/25 05:31:04;;;;;;;2.37;0.90;;;20.70;99.90;;;;;;5114424;28;20475;-72
2022/08/25 05:33:31;;;;;;;1.30;0.83;;;20.60;99.90;;;;;;5114057;28;20461;-72
2022/08/25 05:35:59;;;;;;;1.20;0.83;;;20.60;99.90;;;;;;5111161;28;20821;-73
2022/08/25 05:38:27;;;;;;;1.50;0.90;;;20.50;29.70;;;;;;5114110;28;20552;-71
2022/08/25 05:40:57;;;;;;;1.03;0.80;;;20.50;1.00;;;;;;5115271;28;20455;-71
2022/08/25 05:43:24;;;;;;;1.20;0.80;;;20.60;99.90;;;;;;5115662;28;20445;-72
2022/08/25 05:45:54;;;;;;;1.23;0.90;;;20.70;1.00;;;;;;5115305;28;20935;-72
2022/08/25 05:48:21;;;;;;;1.13;0.70;;;20.80;1.00;;;;;;5115868;28;20550;-72
2022/08/25 05:50:52;;;;;;;1.53;0.80;;;20.80;1.00;;;;;;5115292;28;20538;-72
2022/08/25 05:53:21;;;;;;;1.30;1.00;;;20.80;1.00;;;;;;5114735;28;20748;-72
2022/08/25 05:55:49;;;;;;;1.60;1.00;;;20.70;99.90;;;;;;5113691;28;20515;-72
2022/08/25 05:58:16;;;;;;;2.17;1.00;;;20.60;1.00;;;;;;5115160;28;20726;-72
2022/08/25 06:00:43;;;;;;;1.60;1.00;;;20.50;51.80;;;;;;5108889;28;21187;-72
2022/08/25 06:03:09;;;;;;;1.00;0.90;;;20.40;99.90;;;;;;5094165;28;20534;-72
2022/08/25 06:05:36;;;;;;;8.07;6.43;;;20.50;1.00;;;;;;5095004;28;20469;-73
2022/08/25 06:08:03;;;;;;;4.63;4.23;;;20.70;99.90;;;;;;5097038;28;20491;-73
2022/08/25 06:10:35;;;;;;;1.30;1.10;;;20.80;99.90;;;;;;5106297;28;20957;-72
2022/08/25 06:13:02;;;;;;;1.50;0.87;;;20.80;2.20;;;;;;5111206;28;20453;-73
2022/08/25 06:15:30;;;;;;;1.40;0.80;;;20.90;99.90;;;;;;5113441;28;20491;-72
2022/08/25 06:18:00;;;;;;;3.27;1.03;;;21.00;99.90;;;;;;5101070;28;20494;-72
2022/08/25 06:20:28;;;;;;;1.33;1.00;;;21.10;99.90;;;;;;5091487;28;20465;-73
2022/08/25 06:22:56;;;;;;;1.43;1.13;;;21.00;99.90;;;;;;5098308;28;20741;-71
2022/08/25 06:25:26;;;;;;;1.80;1.00;;;20.90;1.00;;;;;;5097585;28;20530;-73
2022/08/25 06:27:55;;;;;;;1.47;1.30;;;20.80;1.00;;;;;;5107419;28;20487;-72
2022/08/25 06:30:24;;;;;;;1.27;0.90;;;20.80;1.00;;;;;;5114869;28;20456;-72
2022/08/25 06:32:51;;;;;;;2.30;1.27;;;20.90;1.00;;;;;;5119488;28;20513;-71
2022/08/25 06:35:19;;;;;;;2.03;1.00;;;21.00;99.90;;;;;;5115993;28;20990;-71
2022/08/25 06:37:47;;;;;;;1.83;1.00;;;21.00;1.00;;;;;;5107449;28;20472;-72
2022/08/25 06:40:16;;;;;;;10.10;6.77;;;21.20;99.90;;;;;;5102206;28;20541;-73
2022/08/25 06:42:43;;;;;;;2.30;1.20;;;21.40;38.80;;;;;;5099346;28;20441;-73
2022/08/25 06:45:12;;;;;;;1.13;0.93;;;21.50;99.90;;;;;;5118326;28;20571;-73
2022/08/25 06:47:38;;;;;;;2.13;1.20;;;21.60;99.90;;;;;;5119109;28;21100;-72
2022/08/25 06:50:06;;;;;;;2.33;1.50;;;21.60;99.90;;;;;;5113682;28;20494;-72
2022/08/25 06:52:34;;;;;;;1.30;1.00;;;21.50;1.00;;;;;;5098822;28;20453;-72
2022/08/25 06:55:01;;;;;;;2.03;1.60;;;21.40;1.00;;;;;;5110730;28;20484;-71
2022/08/25 06:57:28;;;;;;;2.83;1.50;;;21.50;1.30;;;;;;5118151;28;20448;-72
2022/08/25 06:59:55;;;;;;;1.73;1.00;;;21.50;1.00;;;;;;5119457;28;20449;-72
2022/08/25 07:02:24;;;;;;;2.47;1.10;;;21.60;1.00;;;;;;5117952;28;20472;-72
2022/08/25 07:04:52;;;;;;;1.90;1.00;;;21.70;1.00;;;;;;5115137;28;20444;-71
2022/08/25 07:07:20;;;;;;;7.03;1.50;;;21.80;99.90;;;;;;5106133;28;20444;-72
2022/08/25 07:09:47;;;;;;;1.70;1.10;;;21.90;99.90;;;;;;5112716;28;20976;-72
2022/08/25 07:12:14;;;;;;;2.03;1.83;;;22.00;99.90;;;;;;5118411;28;20436;-72
2022/08/25 07:14:41;;;;;;;3.40;1.20;;;22.00;1.00;;;;;;5117096;28;20484;-72
2022/08/25 07:17:08;;;;;;;2.00;1.27;;;22.00;1.00;;;;;;5118935;28;20448;-71
2022/08/25 07:19:36;;;;;;;3.00;1.40;;;22.10;1.00;;;;;;5118197;28;20452;-72
2022/08/25 07:22:03;;;;;;;2.20;1.40;;;22.20;1.00;;;;;;5099450;28;20526;-72
2022/08/25 07:24:30;;;;;;;2.80;1.20;;;22.40;99.90;;;;;;5117042;28;20962;-72
2022/08/25 07:26:58;;;;;;;1.77;1.40;;;22.50;99.90;;;;;;5116873;28;20453;-72
2022/08/25 07:29:27;;;;;;;1.60;1.30;;;22.70;99.90;;;;;;5116986;28;20541;-70
2022/08/25 07:31:54;;;;;;;1.90;1.10;;;22.90;1.00;;;;;;5118832;28;20452;-71
2022/08/25 07:37:06;;;;;;;1.80;1.20;;;23.20;1.00;;;;;;5114831;28;20420;-72
2022/08/25 07:39:34;;;;;;;1.23;0.93;;;23.20;1.00;;;;;;5112627;28;20488;-73
2022/08/25 07:42:02;;;;;;;1.80;1.13;;;23.20;1.00;;;;;;5116231;28;20448;-72
2022/08/25 07:44:29;;;;;;;1.80;1.03;;;23.30;1.00;;;;;;5113743;28;20487;-72
2022/08/25 07:46:56;;;;;;;1.63;1.17;;;23.40;1.00;;;;;;5117052;28;20448;-71
2022/08/25 07:49:25;;;;;;;1.53;1.23;;;23.50;1.00;;;;;;5113809;28;20449;-71
2022/08/25 07:51:54;;;;;;;4.87;1.03;;;23.60;99.90;;;;;;5116880;28;20974;-72
2022/08/25 07:54:26;;;;;;;1.53;1.13;;;23.70;99.90;;;;;;5098193;28;21101;-73
2022/08/25 07:56:52;;;;;;;2.60;1.50;;;23.80;99.90;;;;;;5096588;28;21039;-72
2022/08/25 07:59:19;;;;;;;1.40;1.10;;;23.90;99.90;;;;;;5095695;28;20540;-72
2022/08/25 08:01:46;;;;;;;2.07;1.20;;;23.90;99.90;;;;;;5096952;28;20473;-71
2022/08/25 08:04:13;;;;;;;7.10;1.10;;;24.00;99.90;;;;;;5094342;28;20452;-72
2022/08/25 08:06:40;;;;;;;1.57;1.00;;;24.00;99.90;;;;;;5096886;28;20905;-71
2022/08/25 08:09:08;;;;;;;1.30;0.93;;;24.00;99.90;;;;;;5097219;28;20552;-71
2022/08/25 08:11:39;;;;;;;1.70;1.00;;;24.20;99.90;;;;;;5096824;28;20550;-72
2022/08/25 08:14:08;;;;;;;1.80;1.13;;;24.30;99.90;;;;;;5091961;28;20552;-71
2022/08/25 08:16:36;;;;;;;1.90;1.70;;;24.30;99.90;;;;;;5095073;28;20481;-72
2022/08/25 08:19:03;;;;;;;1.83;1.23;;;24.30;99.90;;;;;;5096491;28;20450;-72
2022/08/25 08:21:33;;;;;;;1.93;1.10;;;24.20;99.90;;;;;;5096440;28;20750;-73
2022/08/25 08:24:01;;;;;;;2.40;1.67;;;24.40;99.90;;;;;;5094209;28;20477;-71
2022/08/25 08:26:28;;;;;;;3.87;1.70;;;24.40;97.40;;;;;;5095172;28;20861;-71
2022/08/25 08:28:57;;;;;;;1.30;0.90;;;24.50;76.20;;;;;;5094114;28;20536;-72
2022/08/25 08:31:25;;;;;;;1.47;1.10;;;24.60;37.80;;;;;;5092276;28;20550;-71
2022/08/25 08:33:54;;;;;;;1.50;1.00;;;24.60;24.80;;;;;;5095123;28;20961;-73
2022/08/25 08:36:22;;;;;;;1.20;0.90;;;24.60;16.70;;;;;;5094727;28;20539;-74
2022/08/25 08:38:49;;;;;;;1.47;1.00;;;24.70;1.00;;;;;;5095408;28;20877;-73
2022/08/25 08:44:35;;;;;;;2.53;1.00;;;25.00;1.00;;;;;;5095203;28;20425;-74
2022/08/25 08:47:07;;;;;;;1.20;0.97;;;25.10;1.00;;;;;;5096884;28;20445;-74
2022/08/25 08:49:41;;;;;;;1.30;1.10;;;25.20;1.00;;;;;;5093167;28;20934;-74
2022/08/25 08:52:12;;;;;;;1.30;1.00;;;25.30;1.00;;;;;;5096304;28;20527;-73
2022/08/25 08:54:41;;;;;;;1.97;0.80;;;25.30;1.00;;;;;;5093434;28;20453;-74
2022/08/25 08:57:15;;;;;;;1.10;0.90;;;25.30;1.00;;;;;;5094714;28;20445;-73
2022/08/25 08:59:50;;;;;;;1.30;0.93;;;25.40;1.00;;;;;;5096710;28;20510;-73
2022/08/25 09:02:25;;;;;;;1.40;1.00;;;25.40;1.00;;;;;;5094746;28;20441;-73
2022/08/25 09:04:57;;;;;;;1.60;1.10;;;25.40;1.00;;;;;;5094110;28;20490;-73
2022/08/25 09:07:30;;;;;;;1.40;1.00;;;25.50;1.00;;;;;;5095560;28;20445;-73
2022/08/25 09:09:58;;;;;;;1.03;0.90;;;25.70;1.00;;;;;;5093058;28;20480;-73
2022/08/25 09:12:33;;;;;;;1.63;0.90;;;25.80;1.00;;;;;;5094541;28;20450;-74
2022/08/25 09:15:12;;;;;;;1.57;1.00;;;25.90;1.00;;;;;;5093683;28;20457;-73
2022/08/25 09:17:58;;;;;;;1.03;0.80;;;25.90;1.00;;;;;;5093406;28;20447;-73
2022/08/25 09:20:40;;;;;;;1.53;1.10;;;26.00;1.00;;;;;;5096146;28;20511;-72
2022/08/25 09:23:21;;;;;;;2.50;1.10;;;26.20;1.00;;;;;;5095957;28;20442;-72
2022/08/25 09:25:59;;;;;;;1.40;0.90;;;26.40;1.00;;;;;;5093003;28;20480;-72
2022/08/25 09:28:32;;;;;;;1.20;0.90;;;26.50;1.00;;;;;;5095260;28;20456;-72
2022/08/25 09:31:02;;;;;;;1.23;0.90;;;26.60;1.00;;;;;;5095848;28;20868;-72
2022/08/25 09:33:31;;;;;;;1.73;1.10;;;26.80;1.00;;;;;;5094065;28;20461;-72
2022/08/25 09:36:00;;;;;;;1.33;0.90;;;26.80;1.00;;;;;;5095184;28;20576;-71
2022/08/25 09:38:29;;;;;;;1.33;0.90;;;26.80;1.00;;;;;;5095346;28;20864;-72
2022/08/25 09:40:59;;;;;;;1.40;0.90;;;26.80;1.00;;;;;;5090869;28;20764;-72
2022/08/25 09:43:35;;;;;;;1.60;1.20;;;26.70;1.00;;;;;;5095030;28;20572;-72
2022/08/25 09:46:11;;;;;;;2.33;0.90;;;26.90;1.00;;;;;;5095417;28;20450;-71
2022/08/25 09:48:45;;;;;;;1.07;0.80;;;27.00;1.00;;;;;;5094128;28;20486;-72
2022/08/25 09:51:19;;;;;;;1.70;1.00;;;26.90;1.00;;;;;;5089658;28;20942;-72
2022/08/25 09:53:51;;;;;;;1.50;1.00;;;26.80;1.00;;;;;;5092083;28;20478;-72
2022/08/25 09:56:21;;;;;;;1.30;0.90;;;26.90;1.00;;;;;;5088165;28;20517;-71
2022/08/25 09:58:48;;;;;;;1.40;1.00;;;27.10;1.00;;;;;;5091427;28;20422;-71
2022/08/25 10:01:19;;;;;;;1.80;1.40;;;27.20;1.00;;;;;;5089951;28;20450;-71
2022/08/25 10:04:01;;;;;;;1.70;1.00;;;27.30;1.00;;;;;;5091212;28;20539;-71
2022/08/25 10:06:36;;;;;;;1.30;0.80;;;27.30;1.00;;;;;;5090678;28;20476;-71
2022/08/25 10:09:07;;;;;;;1.63;1.07;;;27.30;1.00;;;;;;5093880;28;20453;-71
2022/08/25 10:11:52;;;;;;;1.10;0.80;;;27.40;1.00;;;;;;5094035;28;20515;-71
2022/08/25 10:14:27;;;;;;;1.20;1.00;;;27.70;1.00;;;;;;5093206;28;20764;-71
2022/08/25 10:17:13;;;;;;;1.40;1.00;;;28.00;1.00;;;;;;5094189;28;20579;-71
2022/08/25 10:19:41;;;;;;;1.30;0.90;;;28.40;1.00;;;;;;5092874;28;20880;-71
2022/08/25 10:22:10;;;;;;;2.53;1.00;;;28.50;1.00;;;;;;5093872;28;20457;-71
2022/08/25 10:24:39;;;;;;;1.03;0.90;;;28.80;1.00;;;;;;5092848;28;20479;-71
2022/08/25 10:27:19;;;;;;;1.23;0.90;;;28.90;1.00;;;;;;5093928;28;20454;-71
2022/08/25 10:30:03;;;;;;;1.30;0.90;;;29.30;1.00;;;;;;5092318;28;20717;-71
2022/08/25 10:32:42;;;;;;;1.10;0.90;;;29.20;1.00;;;;;;5091512;28;20457;-71
2022/08/25 10:35:15;;;;;;;2.83;1.00;;;29.30;1.00;;;;;;5094025;28;20846;-71
2022/08/25 10:37:54;;;;;;;1.00;0.90;;;29.10;1.00;;;;;;5094170;28;20503;-71
2022/08/25 10:40:24;;;;;;;0.90;0.70;;;29.10;1.00;;;;;;5094186;28;20442;-72
2022/08/25 10:43:05;;;;;;;0.97;0.80;;;29.20;1.00;;;;;;5093003;28;20920;-71
2022/08/25 10:45:42;;;;;;;0.90;0.70;;;29.40;1.00;;;;;;5091057;28;20513;-71
2022/08/25 10:48:51;;;;;;;1.23;0.93;;;29.70;1.00;;;;;;5091807;28;20446;-71
2022/08/25 10:51:38;;;;;;;1.20;0.80;;;29.60;1.00;;;;;;5092590;28;20529;-71
2022/08/25 10:54:15;;;;;;;1.33;0.73;;;29.90;1.00;;;;;;5092449;28;20552;-72
2022/08/25 10:56:48;;;;;;;0.83;0.60;;;30.30;1.00;;;;;;5092633;28;21154;-72
2022/08/25 10:59:51;;;;;;;1.20;0.80;;;30.30;1.00;;;;;;5092739;28;20561;-70
2022/08/25 11:02:46;;;;;;;1.10;0.80;;;30.40;1.00;;;;;;5092772;28;20966;-71
2022/08/25 11:05:21;;;;;;;1.23;0.80;;;30.50;1.00;;;;;;5092477;28;20446;-71
2022/08/25 11:07:53;;;;;;;1.10;0.90;;;30.60;1.00;;;;;;5094293;28;20467;-71
2022/08/25 11:10:25;;;;;;;2.10;0.80;;;30.80;1.00;;;;;;5098195;28;20446;-72
2022/08/25 11:12:55;;;;;;;1.47;0.70;;;30.90;1.00;;;;;;5096734;28;20511;-71
2022/08/25 11:15:27;;;;;;;1.00;0.80;;;31.20;1.00;;;;;;5097800;28;20438;-71
2022/08/25 11:17:58;;;;;;;1.00;0.70;;;31.20;1.00;;;;;;5097461;28;20483;-72
2022/08/25 11:20:32;;;;;;;0.90;0.80;;;31.50;1.00;;;;;;5096251;28;21216;-72
2022/08/25 11:23:12;;;;;;;1.10;0.67;;;31.70;1.00;;;;;;5093074;28;20461;-72
2022/08/25 11:25:43;;;;;;;0.93;0.80;;;31.40;1.00;;;;;;5094562;28;20479;-71
2022/08/25 11:28:14;;;;;;;0.90;0.80;;;30.90;1.00;;;;;;5095211;28;20449;-70
2022/08/25 11:30:43;;;;;;;1.30;0.93;;;30.70;1.00;;;;;;5095076;28;20488;-71
2022/08/25 11:33:13;;;;;;;1.10;0.93;;;30.70;1.00;;;;;;5096751;28;20557;-71
2022/08/25 11:35:44;;;;;;;0.83;0.63;;;30.60;1.00;;;;;;5096665;28;20485;-72
2022/08/25 11:38:25;;;;;;;1.37;0.70;;;30.70;1.00;;;;;;5093819;28;20510;-70
2022/08/25 11:41:03;;;;;;;0.90;0.80;;;30.90;1.00;;;;;;5096881;28;20473;-71
2022/08/25 11:43:44;;;;;;;0.87;0.70;;;31.10;1.00;;;;;;5095635;28;20476;-72
2022/08/25 11:46:38;;;;;;;0.80;0.70;;;31.40;1.00;;;;;;5096957;28;20538;-71
2022/08/25 11:49:24;;;;;;;0.80;0.70;;;31.60;1.00;;;;;;5096753;28;20450;-72
2022/08/25 11:51:52;;;;;;;1.20;0.80;;;31.80;1.00;;;;;;5094333;28;20453;-71
2022/08/25 11:54:24;;;;;;;1.00;0.70;;;31.60;1.00;;;;;;5094953;28;20896;-72
2022/08/25 11:56:56;;;;;;;1.20;0.70;;;31.40;1.00;;;;;;5096901;28;20485;-72
2022/08/25 12:00:00;;;;;;;0.80;0.67;;;31.10;1.00;;;;;;5095913;28;20810;-71
2022/08/25 12:02:35;;;;;;;1.27;0.80;;;31.30;1.00;;;;;;5095329;28;20460;-72
2022/08/25 12:05:02;;;;;;;0.93;0.70;;;31.60;1.00;;;;;;5094625;28;20457;-72
2022/08/25 12:10:57;;;;;;;0.87;0.70;;;32.30;1.00;;;;;;5093702;28;20563;-71
2022/08/25 12:13:40;;;;;;;1.30;0.80;;;32.10;1.00;;;;;;5090964;28;20826;-71
2022/08/25 12:16:27;;;;;;;2.00;0.80;;;31.60;1.00;;;;;;5093807;28;20580;-70
2022/08/25 12:19:30;;;;;;;1.13;1.00;;;31.40;1.00;;;;;;5092707;28;20450;-71
2022/08/25 12:22:18;;;;;;;0.93;0.67;;;31.60;1.00;;;;;;5094332;28;20529;-70
2022/08/25 12:24:51;;;;;;;0.80;0.60;;;31.90;1.00;;;;;;5094710;28;20556;-71
2022/08/25 12:27:24;;;;;;;0.70;0.60;;;31.70;1.00;;;;;;5089542;28;20681;-70
2022/08/25 12:29:56;;;;;;;0.90;0.70;;;31.50;1.00;;;;;;5093889;28;20536;-71
2022/08/25 12:32:38;;;;;;;1.30;0.70;;;31.50;1.00;;;;;;5091491;28;20540;-72
2022/08/25 12:35:21;;;;;;;0.90;0.80;;;31.70;1.00;;;;;;5094131;28;20794;-70
2022/08/25 12:37:58;;;;;;;0.80;0.60;;;31.60;1.00;;;;;;5093104;28;20491;-71
2022/08/25 12:40:31;;;;;;;0.90;0.70;;;31.80;1.00;;;;;;5098423;28;20449;-71
2022/08/25 12:43:06;;;;;;;1.20;0.83;;;31.80;1.00;;;;;;5107197;28;20457;-71
2022/08/25 12:45:42;;;;;;;0.87;0.73;;;31.60;1.00;;;;;;5106603;28;20506;-71
2022/08/25 12:48:42;;;;;;;1.07;0.80;;;31.60;1.00;;;;;;5108878;28;20452;-71
2022/08/25 12:51:18;;;;;;;1.00;0.80;;;31.80;1.00;;;;;;5108779;28;20514;-70
2022/08/25 12:53:49;;;;;;;0.90;0.70;;;31.70;1.00;;;;;;5104110;28;20539;-72
2022/08/25 12:56:25;;;;;;;0.80;0.60;;;31.90;1.00;;;;;;5112609;28;20485;-72
2022/08/25 12:59:01;;;;;;;0.73;0.60;;;31.50;1.00;;;;;;5107383;28;20476;-72
2022/08/25 13:01:38;;;;;;;0.90;0.80;;;31.70;1.00;;;;;;5095413;28;21057;-73
2022/08/25 13:04:40;;;;;;;0.70;0.60;;;31.60;1.00;;;;;;5105363;28;20471;-71
2022/08/25 13:07:27;;;;;;;0.93;0.70;;;31.70;1.00;;;;;;5095584;28;20521;-71
2022/08/25 13:10:24;;;;;;;0.67;0.50;;;32.00;1.00;;;;;;5115116;28;20449;-71
2022/08/25 13:12:58;;;;;;;1.00;0.70;;;32.00;1.00;;;;;;5089582;28;20544;-71
2022/08/25 13:15:33;;;;;;;0.73;0.50;;;31.80;1.00;;;;;;5093503;28;21107;-72
2022/08/25 13:18:18;;;;;;;0.85;0.68;;;32.10;1.00;;;;;;5097184;28;20459;-71
2022/08/25 13:20:45;;;;;;;0.80;0.60;;;32.10;1.00;;;;;;5114380;28;20626;-72
2022/08/25 13:23:19;;;;;;;1.13;0.77;;;31.90;1.00;;;;;;5106419;28;20457;-71
2022/08/25 13:25:50;;;;;;;0.80;0.67;;;31.80;1.00;;;;;;5095584;28;20819;-72